Hlavní strana
METAR-TAF:

METAR-TAF

Letiště :

Damašek, Sýrie

zeměpisná šířka: 33-25N, zeměpisná délka: 036-31E, výška: 608 m

Aktuální stav počasí

Zpráva byla vytvořena před 1 hodinou a 1 minutami, v 18:00 UTC
Jihojihozápadní vítr 11 kt
Teplota 14°C
Vlhkost vzduchu 63%
Tlak 1015 hPa
Viditelnost 10 km a více
Žádná oblačnost pod 1500 m, nevyskytují se cumulonimby.

METAR: OSDI 061800Z 20011KT CAVOK 14/07 Q1015

Čas: 22:01 (19:01 UTC)

Předpověď počasí

Zpráva byla vytvořena před 2 hodinami a 1 minutami, v 17:00 UTC
Předpověď platná od 06 v 18 UTC do 07 v 24 UTC
Jihozápadní vítr 10 kt
Viditelnost 10 km a více
Skoro jasno ve výšce 3000 ft
Dočasný
od 06 v 20 UTC do 07 v 10 UTC
vítr z různých směrů 3 kt
Viditelnost 10 km a více
Žádná oblačnost pod 1500 m, nevyskytují se cumulonimby.

TAF: OSDI 061700Z 0618/0724 22010KT 9999 FEW030 TEMPO 0620/0710 VRB03KT CAVOK

Stav a předpovědi počasí z více než 4 000 letišť (zprávy METAR a TAF).

Červené a žluté tečky na mapě představují dostupné meteorologické stanice.

Když kurzor umístíte na tečku, zobrazí se název stanice.

Pak kliknutím zobrazíte stav a předpověď počasí.

Chcete-li změnit mapu, kliknutím na zelené tlačítko se znaménkem +mapu přiblížíte, kliknutím na zelené tlačítko se znaménkem – mapu oddálíte a kliknutím na zelené šipky přejdete na sousední mapy.


METAR-TAF: